Time;durP1;ratioP1;P1;durP2;ratioP2;P2;SDS_P1;SDS_P2;PMS_P1;PMS_P2;Temp;Humidity;BMP_temperature;BMP_pressure;BME280_temperature;BME280_humidity;BME280_pressure;Samples;Min_cycle;Max_cycle;Signal;HPM_P1;HPM_P2
2021/11/22 00:01:20;;;;;;;422.75;246.38;;;;;;;;;;5032078;28;20413;-62
2021/11/22 00:03:47;;;;;;;409.95;228.05;;;;;;;;;;5033391;28;20375;-61
2021/11/22 00:06:13;;;;;;;362.73;209.98;;;;;;;;;;5031864;28;20382;-62
2021/11/22 00:08:39;;;;;;;380.33;216.80;;;;;;;;;;5033339;28;20588;-62
2021/11/22 00:14:09;;;;;;;330.20;189.05;;;;;;;;;;5033059;28;20116;-62
2021/11/22 00:16:35;;;;;;;330.48;187.70;;;;;;;;;;5033515;28;20037;-63
2021/11/22 00:19:02;;;;;;;349.67;197.65;;;;;;;;;;5033103;28;20057;-62
2021/11/22 00:21:28;;;;;;;352.35;195.48;;;;;;;;;;5033225;28;20052;-63
2021/11/22 00:23:54;;;;;;;322.10;179.68;;;;;;;;;;5033380;28;20021;-63
2021/11/22 00:26:21;;;;;;;316.02;178.43;;;;;;;;;;5015233;28;20157;-62
2021/11/22 00:28:47;;;;;;;304.60;166.32;;;;;;;;;;5033062;28;20033;-64
2021/11/22 00:31:13;;;;;;;304.88;172.25;;;;;;;;;;5032741;28;20390;-62
2021/11/22 00:33:42;;;;;;;288.10;160.90;;;;;;;;;;5032701;28;20425;-62
2021/11/22 00:36:09;;;;;;;271.40;154.25;;;;;;;;;;5015213;28;20033;-63
2021/11/22 00:38:35;;;;;;;282.05;158.43;;;;;;;;;;5015015;28;20026;-63
2021/11/22 00:41:02;;;;;;;271.88;155.10;;;;;;;;;;5033268;28;20112;-62
2021/11/22 00:43:28;;;;;;;264.08;139.85;;;;;;;;;;5032806;28;20025;-63
2021/11/22 00:45:55;;;;;;;276.80;152.55;;;;;;;;;;5032790;28;20030;-63
2021/11/22 00:48:22;;;;;;;255.38;140.10;;;;;;;;;;5032824;28;20466;-62
2021/11/22 00:50:49;;;;;;;265.35;137.88;;;;;;;;;;5015064;28;20034;-63
2021/11/22 00:53:15;;;;;;;272.17;148.15;;;;;;;;;;5034071;28;20036;-63
2021/11/22 00:55:42;;;;;;;273.30;151.07;;;;;;;;;;5036850;28;20044;-64
2021/11/22 00:58:10;;;;;;;277.55;152.32;;;;;;;;;;5036719;28;20090;-63
2021/11/22 01:00:37;;;;;;;260.20;141.90;;;;;;;;;;5018580;28;20105;-62
2021/11/22 01:03:04;;;;;;;255.70;137.55;;;;;;;;;;5036744;28;20025;-62
2021/11/22 01:05:30;;;;;;;256.33;136.32;;;;;;;;;;5036596;28;20041;-62
2021/11/22 01:07:57;;;;;;;250.32;136.25;;;;;;;;;;5018750;28;20473;-62
2021/11/22 01:10:23;;;;;;;224.25;127.30;;;;;;;;;;5036620;28;20036;-63
2021/11/22 01:12:56;;;;;;;229.38;128.52;;;;;;;;;;5035524;28;20052;-62
2021/11/22 01:15:23;;;;;;;223.57;120.50;;;;;;;;;;5034880;28;20029;-63
2021/11/22 01:17:51;;;;;;;213.57;119.70;;;;;;;;;;5035217;28;20087;-63
2021/11/22 01:20:21;;;;;;;215.82;116.93;;;;;;;;;;5017544;28;20386;-63
2021/11/22 01:22:47;;;;;;;230.07;124.45;;;;;;;;;;5035157;28;20028;-64
2021/11/22 01:25:14;;;;;;;229.10;126.28;;;;;;;;;;5017035;28;20577;-64
2021/11/22 01:27:41;;;;;;;219.85;122.65;;;;;;;;;;5035290;28;20089;-64
2021/11/22 01:30:11;;;;;;;238.85;131.88;;;;;;;;;;5034874;28;20075;-62
2021/11/22 01:32:37;;;;;;;232.27;130.27;;;;;;;;;;5035001;28;20033;-64
2021/11/22 01:35:03;;;;;;;234.82;132.60;;;;;;;;;;5017311;28;20484;-64
2021/11/22 01:37:29;;;;;;;205.93;114.93;;;;;;;;;;5034874;28;20068;-63
2021/11/22 01:39:56;;;;;;;212.93;114.90;;;;;;;;;;5017091;28;20029;-64
2021/11/22 01:42:23;;;;;;;203.45;114.30;;;;;;;;;;5034798;28;20036;-64
2021/11/22 01:44:49;;;;;;;179.93;107.03;;;;;;;;;;5016840;28;20022;-66
2021/11/22 01:47:15;;;;;;;195.55;111.68;;;;;;;;;;5034441;28;20371;-65
2021/11/22 01:49:42;;;;;;;194.38;110.05;;;;;;;;;;5034683;28;20027;-64
2021/11/22 01:52:08;;;;;;;184.13;105.70;;;;;;;;;;5034734;28;20029;-63
2021/11/22 01:54:34;;;;;;;191.98;108.95;;;;;;;;;;5034635;28;20381;-65
2021/11/22 01:57:00;;;;;;;191.98;113.00;;;;;;;;;;5034596;28;20033;-64
2021/11/22 01:59:27;;;;;;;205.40;115.15;;;;;;;;;;5034563;28;20021;-64
2021/11/22 02:01:53;;;;;;;209.35;115.32;;;;;;;;;;5016795;28;20052;-65
2021/11/22 02:04:20;;;;;;;220.32;117.00;;;;;;;;;;5016165;28;20044;-63
2021/11/22 02:06:46;;;;;;;219.20;117.85;;;;;;;;;;5034369;28;20112;-63
2021/11/22 02:09:13;;;;;;;209.05;113.05;;;;;;;;;;5016534;28;20022;-63
2021/11/22 02:11:40;;;;;;;188.80;107.18;;;;;;;;;;4984558;28;1435345;-63
2021/11/22 02:14:06;;;;;;;181.27;106.00;;;;;;;;;;5035433;28;20022;-63
2021/11/22 02:16:34;;;;;;;171.40;99.65;;;;;;;;;;5035208;28;20105;-63
2021/11/22 02:19:01;;;;;;;141.98;80.32;;;;;;;;;;5017476;28;20025;-64
2021/11/22 02:21:28;;;;;;;191.40;105.03;;;;;;;;;;5035372;28;20021;-63
2021/11/22 02:23:54;;;;;;;185.93;106.03;;;;;;;;;;5035578;28;20699;-63
2021/11/22 02:26:20;;;;;;;149.43;85.35;;;;;;;;;;5035244;28;20114;-63
2021/11/22 02:28:47;;;;;;;143.82;81.20;;;;;;;;;;5035421;28;20124;-63
2021/11/22 02:31:13;;;;;;;133.43;75.03;;;;;;;;;;5035074;28;20021;-63
2021/11/22 02:33:40;;;;;;;144.15;77.75;;;;;;;;;;5035112;28;20021;-63
2021/11/22 02:36:06;;;;;;;158.75;91.43;;;;;;;;;;5035288;28;20053;-62
2021/11/22 02:38:34;;;;;;;168.60;92.85;;;;;;;;;;5035000;28;20017;-62
2021/11/22 02:41:01;;;;;;;156.50;90.05;;;;;;;;;;5017043;28;20030;-63
2021/11/22 02:43:28;;;;;;;161.02;93.15;;;;;;;;;;5034954;28;20030;-63
2021/11/22 02:45:55;;;;;;;155.68;89.57;;;;;;;;;;5034790;28;20109;-63
2021/11/22 02:48:21;;;;;;;157.85;87.88;;;;;;;;;;5035061;28;20576;-62
2021/11/22 02:50:47;;;;;;;150.43;81.30;;;;;;;;;;5034443;28;20374;-63
2021/11/22 02:53:14;;;;;;;152.05;85.60;;;;;;;;;;5034741;28;20022;-62
2021/11/22 02:55:41;;;;;;;150.40;86.13;;;;;;;;;;5016738;28;20533;-61
2021/11/22 02:58:07;;;;;;;150.77;83.05;;;;;;;;;;5034538;28;20034;-62
2021/11/22 03:00:36;;;;;;;152.38;89.28;;;;;;;;;;5016684;28;20030;-61
2021/11/22 03:03:02;;;;;;;157.48;87.22;;;;;;;;;;5034433;28;20026;-62
2021/11/22 03:05:29;;;;;;;154.40;86.78;;;;;;;;;;5034439;28;20061;-61
2021/11/22 03:07:56;;;;;;;140.80;78.50;;;;;;;;;;5034171;28;20032;-62
2021/11/22 03:10:25;;;;;;;139.75;79.20;;;;;;;;;;5034409;28;20025;-62
2021/11/22 03:12:51;;;;;;;139.68;80.97;;;;;;;;;;5033877;28;20049;-62
2021/11/22 03:15:19;;;;;;;132.77;74.32;;;;;;;;;;5033747;28;20033;-62
2021/11/22 03:17:45;;;;;;;131.93;77.88;;;;;;;;;;5016318;28;20481;-62
2021/11/22 03:20:19;;;;;;;137.68;76.65;;;;;;;;;;5034172;28;20026;-61
2021/11/22 03:22:46;;;;;;;129.88;76.10;;;;;;;;;;5034444;28;20018;-62
2021/11/22 03:25:15;;;;;;;127.30;72.95;;;;;;;;;;5016169;28;20069;-62
2021/11/22 03:27:42;;;;;;;122.65;71.60;;;;;;;;;;5033934;28;20049;-62
2021/11/22 03:30:09;;;;;;;131.75;69.95;;;;;;;;;;5016116;28;20484;-62
2021/11/22 03:32:36;;;;;;;126.35;71.30;;;;;;;;;;5034008;28;20374;-62
2021/11/22 03:35:02;;;;;;;131.77;75.90;;;;;;;;;;5033924;28;20112;-62
2021/11/22 03:37:29;;;;;;;136.38;76.70;;;;;;;;;;5015994;28;20017;-62
2021/11/22 03:39:55;;;;;;;134.57;75.88;;;;;;;;;;5033781;28;20025;-62
2021/11/22 03:42:23;;;;;;;146.88;78.28;;;;;;;;;;5033857;28;20036;-63
2021/11/22 03:44:50;;;;;;;131.20;72.20;;;;;;;;;;5033727;28;20238;-63
2021/11/22 03:47:16;;;;;;;122.80;68.30;;;;;;;;;;5015920;28;20116;-63
2021/11/22 03:49:43;;;;;;;127.18;72.20;;;;;;;;;;5033605;28;20148;-62
2021/11/22 03:52:10;;;;;;;134.93;73.13;;;;;;;;;;5033675;28;20068;-62
2021/11/22 03:54:37;;;;;;;132.52;71.22;;;;;;;;;;5033520;28;20033;-62
2021/11/22 03:57:03;;;;;;;130.10;71.47;;;;;;;;;;5033525;28;20402;-62
2021/11/22 03:59:30;;;;;;;124.05;70.18;;;;;;;;;;5033490;28;20018;-62
2021/11/22 04:01:56;;;;;;;121.75;68.85;;;;;;;;;;5033492;28;20146;-62
2021/11/22 04:04:22;;;;;;;123.55;67.63;;;;;;;;;;5033117;28;20378;-61
2021/11/22 04:06:48;;;;;;;104.30;60.90;;;;;;;;;;5033265;28;20040;-62
2021/11/22 04:09:14;;;;;;;109.55;60.47;;;;;;;;;;5033314;28;20017;-62
2021/11/22 04:11:41;;;;;;;105.88;59.05;;;;;;;;;;5032556;28;20050;-63
2021/11/22 04:14:07;;;;;;;113.07;62.28;;;;;;;;;;5033531;28;20033;-63
2021/11/22 04:16:34;;;;;;;120.15;65.05;;;;;;;;;;5033242;28;20032;-62
2021/11/22 04:19:00;;;;;;;118.03;67.57;;;;;;;;;;5033259;28;20032;-62
2021/11/22 04:21:27;;;;;;;111.68;61.72;;;;;;;;;;5033143;28;20057;-62
2021/11/22 04:23:54;;;;;;;139.00;72.78;;;;;;;;;;5033158;28;20057;-62
2021/11/22 04:26:20;;;;;;;142.50;74.60;;;;;;;;;;5033037;28;20459;-61
2021/11/22 04:28:47;;;;;;;111.82;64.05;;;;;;;;;;5032915;28;20113;-62
2021/11/22 04:31:13;;;;;;;150.35;76.85;;;;;;;;;;5015317;28;20029;-62
2021/11/22 04:33:40;;;;;;;113.43;59.80;;;;;;;;;;5033348;28;20025;-65
2021/11/22 04:36:07;;;;;;;128.25;69.97;;;;;;;;;;5032993;28;20109;-65
2021/11/22 04:38:33;;;;;;;134.13;69.68;;;;;;;;;;5032947;28;20030;-64
2021/11/22 04:41:00;;;;;;;133.07;72.30;;;;;;;;;;5032972;28;20057;-62
2021/11/22 04:43:26;;;;;;;129.32;72.65;;;;;;;;;;5033266;28;20022;-61
2021/11/22 04:45:55;;;;;;;123.35;69.40;;;;;;;;;;5032825;28;20042;-61
2021/11/22 04:48:21;;;;;;;118.63;65.07;;;3.90;99.90;;;;;;5015054;28;20108;-62
2021/11/22 04:50:47;;;;;;;102.28;56.03;;;3.80;99.90;;;;;;5015038;28;20447;-62
2021/11/22 04:53:13;;;;;;;95.57;54.00;;;3.80;99.90;;;;;;5032878;28;20497;-62
2021/11/22 04:55:39;;;;;;;95.22;53.78;;;3.70;99.90;;;;;;5014988;28;20034;-62
2021/11/22 04:58:08;;;;;;;107.93;57.58;;;3.70;99.90;;;;;;5032809;28;20479;-63
2021/11/22 05:00:35;;;;;;;111.53;61.10;;;3.80;99.90;;;;;;5032418;28;20355;-62
2021/11/22 05:03:02;;;;;;;111.03;61.90;;;3.90;99.90;;;;;;5015013;28;20386;-62
2021/11/22 05:05:28;;;;;;;104.20;60.15;;;4.00;99.90;;;;;;5032566;28;20036;-62
2021/11/22 05:07:54;;;;;;;99.43;56.45;;;4.10;99.90;;;;;;5032751;28;20025;-62
2021/11/22 05:10:22;;;;;;;95.10;53.13;;;4.20;99.90;;;;;;5032664;28;20037;-62
2021/11/22 05:12:48;;;;;;;94.50;54.58;;;4.30;99.90;;;;;;5032254;28;20049;-62
2021/11/22 05:15:15;;;;;;;90.82;50.60;;;4.20;99.90;;;;;;5032510;28;20056;-62
2021/11/22 05:17:41;;;;;;;108.13;58.63;;;4.20;99.90;;;;;;5032581;28;20030;-61
2021/11/22 05:20:07;;;;;;;216.63;104.95;;;4.20;99.90;;;;;;5032289;28;20036;-62
2021/11/22 05:22:34;;;;;;;256.92;121.07;;;4.30;99.90;;;;;;5032265;28;20470;-62
2021/11/22 05:25:01;;;;;;;154.02;76.97;;;4.20;99.90;;;;;;5032652;28;20037;-62
2021/11/22 05:27:28;;;;;;;120.72;66.85;;;4.20;99.90;;;;;;5032502;28;20121;-62
2021/11/22 05:29:55;;;;;;;124.53;68.50;;;4.10;99.90;;;;;;5032222;28;20026;-62
2021/11/22 05:32:21;;;;;;;120.97;68.45;;;4.10;99.90;;;;;;5032507;28;20030;-62
2021/11/22 05:34:53;;;;;;;129.52;69.55;;;4.10;99.90;;;;;;5032566;28;20029;-62
2021/11/22 05:37:20;;;;;;;147.02;76.25;;;4.10;99.90;;;;;;5032185;28;20433;-62
2021/11/22 05:39:47;;;;;;;122.50;67.63;;;4.00;99.90;;;;;;5034366;28;20458;-62
2021/11/22 05:42:14;;;;;;;115.45;61.75;;;4.10;99.90;;;;;;5035652;28;20037;-62
2021/11/22 05:44:44;;;;;;;111.65;61.70;;;4.20;99.90;;;;;;5018205;28;20029;-62
2021/11/22 05:47:11;;;;;;;109.53;60.33;;;4.10;99.90;;;;;;5017797;28;20041;-62
2021/11/22 05:49:38;;;;;;;112.68;62.28;;;4.20;99.90;;;;;;5018107;28;20057;-62
2021/11/22 05:52:06;;;;;;;107.25;58.30;;;4.20;99.90;;;;;;5035785;28;20033;-62
2021/11/22 05:54:33;;;;;;;108.18;59.08;;;4.30;99.90;;;;;;5017944;28;20124;-61
2021/11/22 05:57:00;;;;;;;97.43;55.28;;;4.30;99.90;;;;;;5035672;28;20049;-61
2021/11/22 05:59:26;;;;;;;103.28;52.95;;;4.40;99.90;;;;;;5035662;28;20064;-61
2021/11/22 06:01:52;;;;;;;104.47;52.53;;;4.40;99.90;;;;;;5035548;28;20514;-63
2021/11/22 06:04:18;;;;;;;94.95;53.33;;;4.50;99.90;;;;;;5017864;28;20053;-62
2021/11/22 06:06:44;;;;;;;100.63;52.53;;;4.40;99.90;;;;;;5017694;28;20475;-62
2021/11/22 06:09:10;;;;;;;101.63;55.75;;;4.40;99.90;;;;;;5017600;28;20034;-62
2021/11/22 06:11:36;;;;;;;102.78;53.08;;;4.40;99.90;;;;;;5017322;28;20551;-62
2021/11/22 06:14:02;;;;;;;102.00;58.80;;;4.50;99.90;;;;;;5035488;28;20025;-62
2021/11/22 06:16:28;;;;;;;119.55;65.28;;;4.40;99.90;;;;;;5035130;28;20364;-62
2021/11/22 06:18:54;;;;;;;119.82;61.50;;;4.40;99.90;;;;;;5035153;28;20041;-61
2021/11/22 06:21:20;;;;;;;114.72;63.90;;;4.50;99.90;;;;;;5035002;28;20034;-63
2021/11/22 06:23:47;;;;;;;121.68;62.85;;;4.50;99.90;;;;;;5035284;28;20035;-62
2021/11/22 06:26:12;;;;;;;123.40;65.40;;;4.60;99.90;;;;;;5035315;28;20033;-62
2021/11/22 06:28:38;;;;;;;118.88;65.90;;;4.60;99.90;;;;;;5034991;28;20087;-62
2021/11/22 06:31:05;;;;;;;109.22;61.10;;;4.70;99.90;;;;;;5017307;28;20053;-64
2021/11/22 06:33:31;;;;;;;115.72;64.50;;;4.80;99.90;;;;;;5016937;28;20032;-63
2021/11/22 06:35:57;;;;;;;108.22;60.83;;;4.80;99.90;;;;;;5016834;28;20451;-64
2021/11/22 06:38:25;;;;;;;113.40;66.00;;;4.90;99.90;;;;;;5034979;28;20053;-62
2021/11/22 06:40:51;;;;;;;131.90;69.80;;;5.00;99.90;;;;;;5034878;28;20057;-63
2021/11/22 06:43:17;;;;;;;210.55;102.78;;;5.10;99.90;;;;;;5017084;28;20025;-62
2021/11/22 06:45:43;;;;;;;236.13;111.40;;;5.20;99.90;;;;;;5034618;28;20367;-62
2021/11/22 06:48:09;;;;;;;240.38;115.13;;;5.30;99.90;;;;;;5034734;28;20029;-63
2021/11/22 06:50:35;;;;;;;213.55;108.10;;;5.30;99.90;;;;;;5015740;28;20048;-62
2021/11/22 06:53:01;;;;;;;184.13;91.50;;;5.30;99.90;;;;;;5015865;28;20043;-61
2021/11/22 06:55:27;;;;;;;187.20;91.07;;;5.40;99.90;;;;;;5027588;28;20032;-62
2021/11/22 06:57:53;;;;;;;225.23;116.93;;;5.50;99.90;;;;;;5054339;28;20419;-62
2021/11/22 07:00:24;;;;;;;247.85;125.53;;;5.60;99.90;;;;;;5053873;28;20029;-62
2021/11/22 07:02:51;;;;;;;244.93;125.57;;;5.70;99.90;;;;;;5054298;28;20136;-62
2021/11/22 07:05:19;;;;;;;244.52;128.45;;;5.80;99.90;;;;;;5054056;28;20021;-62
2021/11/22 07:07:45;;;;;;;269.02;133.32;;;5.90;99.90;;;;;;5054101;28;20029;-62
2021/11/22 07:10:11;;;;;;;240.32;116.80;;;6.00;99.90;;;;;;5053917;28;20523;-62
2021/11/22 07:12:38;;;;;;;163.18;81.40;;;6.00;99.90;;;;;;5054171;28;20048;-64
2021/11/22 07:15:04;;;;;;;134.73;72.47;;;6.10;99.90;;;;;;5053737;28;20413;-64
2021/11/22 07:17:31;;;;;;;122.47;64.57;;;6.10;99.90;;;;;;5035841;28;20032;-63
2021/11/22 07:19:57;;;;;;;126.70;72.35;;;6.20;99.90;;;;;;5054199;28;20103;-62
2021/11/22 07:22:24;;;;;;;127.28;69.78;;;6.30;99.90;;;;;;5035458;28;20033;-62
2021/11/22 07:24:51;;;;;;;139.98;72.30;;;6.30;99.90;;;;;;5054133;28;20067;-62
2021/11/22 07:27:18;;;;;;;141.23;77.78;;;6.30;99.90;;;;;;5035696;28;20036;-64
2021/11/22 07:29:45;;;;;;;160.00;80.07;;;6.50;99.90;;;;;;5053630;28;20029;-63
2021/11/22 07:32:12;;;;;;;168.32;88.13;;;6.60;99.90;;;;;;5053514;28;20032;-62
2021/11/22 07:34:40;;;;;;;165.50;96.20;;;;;;;;;;5053739;28;20050;-63
2021/11/22 07:37:07;;;;;;;180.13;98.25;;;;;;;;;;5035411;28;20036;-62
2021/11/22 07:39:33;;;;;;;175.13;94.75;;;;;;;;;;5053450;28;20100;-61
2021/11/22 07:41:59;;;;;;;170.82;98.25;;;;;;;;;;5053386;28;20024;-62
2021/11/22 07:44:26;;;;;;;205.63;112.18;;;;;;;;;;5053451;28;20025;-62
2021/11/22 07:46:57;;;;;;;177.20;95.95;;;;;;;;;;5053376;28;20029;-63
2021/11/22 07:49:23;;;;;;;160.13;91.07;;;;;;;;;;5053373;28;20028;-62
2021/11/22 07:51:49;;;;;;;142.43;83.30;;;;;;;;;;5053336;28;20052;-64
2021/11/22 07:54:16;;;;;;;130.32;77.55;;;;;;;;;;5035285;28;20545;-62
2021/11/22 07:56:43;;;;;;;103.80;61.15;;;;;;;;;;5053355;28;20083;-63
2021/11/22 07:59:09;;;;;;;104.18;64.28;;;;;;;;;;5053408;28;20029;-63
2021/11/22 08:01:35;;;;;;;115.82;67.22;;;;;;;;;;5052800;28;20078;-64
2021/11/22 08:04:02;;;;;;;114.30;67.43;;;;;;;;;;5035375;28;20021;-64
2021/11/22 08:06:28;;;;;;;122.05;70.80;;;;;;;;;;5035176;28;20033;-63
2021/11/22 08:08:54;;;;;;;120.45;68.18;;;;;;;;;;5035237;28;20029;-64
2021/11/22 08:13:52;;;;;;;169.05;96.13;;;;;;;;;;5053148;28;20029;-63
2021/11/22 08:16:19;;;;;;;147.23;88.13;;;;;;;;;;5053161;28;20038;-63
2021/11/22 08:18:45;;;;;;;110.45;64.10;;;;;;;;;;5035354;28;20056;-63
2021/11/22 08:21:12;;;;;;;111.07;63.42;;;;;;;;;;5052972;28;20028;-62
2021/11/22 08:23:38;;;;;;;108.40;64.20;;;;;;;;;;5035029;28;20117;-64
2021/11/22 08:26:05;;;;;;;224.52;106.93;;;;;;;;;;5052939;28;20060;-61
2021/11/22 08:28:31;;;;;;;165.70;87.45;;;;;;;;;;5052674;28;20452;-62
2021/11/22 08:30:58;;;;;;;124.63;69.88;;;;;;;;;;5052700;28;20017;-63
2021/11/22 08:33:24;;;;;;;102.90;59.03;;;;;;;;;;5052809;28;20108;-63
2021/11/22 08:35:51;;;;;;;95.47;57.28;;;;;;;;;;5034933;28;20387;-63
2021/11/22 08:38:18;;;;;;;109.35;62.40;;;;;;;;;;5052882;28;20033;-62
2021/11/22 08:40:45;;;;;;;109.72;61.53;;;;;;;;;;5052835;28;20029;-62
2021/11/22 08:43:12;;;;;;;110.95;64.10;;;;;;;;;;5052593;28;20094;-63
2021/11/22 08:45:39;;;;;;;101.38;57.33;;;;;;;;;;5052990;28;20037;-63
2021/11/22 08:48:06;;;;;;;100.72;59.30;;;;;;;;;;5051259;28;20036;-62
2021/11/22 08:50:32;;;;;;;103.22;61.25;;;;;;;;;;5048898;28;20029;-63
2021/11/22 08:52:59;;;;;;;95.07;59.10;;;;;;;;;;5051696;28;20033;-61
2021/11/22 08:55:25;;;;;;;102.40;61.90;;;;;;;;;;5050700;28;20056;-66
2021/11/22 08:57:52;;;;;;;105.32;63.38;;;;;;;;;;5050464;28;20028;-62
2021/11/22 09:00:21;;;;;;;101.32;60.45;;;;;;;;;;5052453;28;20033;-62
2021/11/22 09:02:48;;;;;;;107.55;62.20;;;;;;;;;;5052394;28;20040;-61
2021/11/22 09:05:14;;;;;;;106.55;65.78;;;;;;;;;;5052542;28;20102;-61
2021/11/22 09:07:41;;;;;;;103.88;62.80;;;;;;;;;;5052564;28;20032;-62
2021/11/22 09:10:07;;;;;;;97.47;59.67;;;;;;;;;;5052175;28;20449;-62
2021/11/22 09:12:34;;;;;;;102.68;62.58;;;;;;;;;;5052026;28;20132;-62
2021/11/22 09:15:00;;;;;;;99.45;58.75;;;;;;;;;;5055010;28;20099;-62
2021/11/22 09:17:26;;;;;;;102.57;61.28;;;;;;;;;;5056336;28;20043;-62
2021/11/22 09:19:52;;;;;;;98.65;60.35;;;;;;;;;;5038510;28;20035;-62
2021/11/22 09:22:19;;;;;;;111.18;65.05;;;;;;;;;;5056560;28;20441;-62
2021/11/22 09:24:45;;;;;;;99.05;57.08;;;;;;;;;;5055836;28;20501;-62
2021/11/22 09:27:11;;;;;;;80.70;50.00;;;;;;;;;;5038181;28;20041;-62
2021/11/22 09:29:38;;;;;;;85.28;48.00;;;;;;;;;;5056168;28;20021;-62
2021/11/22 09:32:05;;;;;;;76.68;47.22;;;;;;;;;;5038462;28;20377;-62
2021/11/22 09:34:31;;;;;;;85.40;48.35;;;;;;;;;;5056046;28;20385;-62
2021/11/22 09:36:57;;;;;;;82.57;50.58;;;;;;;;;;5055991;28;20044;-62
2021/11/22 09:39:24;;;;;;;90.30;54.83;;;;;;;;;;5037905;28;20104;-62
2021/11/22 09:41:51;;;;;;;97.57;57.65;;;;;;;;;;5037256;28;20080;-63
2021/11/22 09:44:20;;;;;;;95.68;58.58;;;;;;;;;;5031983;28;20049;-62
2021/11/22 09:46:46;;;;;;;103.30;63.80;;;;;;;;;;5021746;28;20061;-62
2021/11/22 09:49:13;;;;;;;98.75;57.67;;;;;;;;;;5035783;28;20064;-62
2021/11/22 09:51:39;;;;;;;97.00;59.35;;;;;;;;;;5035657;28;20021;-61
2021/11/22 09:54:05;;;;;;;130.80;77.97;;;;;;;;;;5017786;28;20108;-62
2021/11/22 09:56:32;;;;;;;102.82;61.53;;;;;;;;;;5035583;28;20482;-61
2021/11/22 09:58:59;;;;;;;111.10;67.13;;;;;;;;;;5017402;28;20026;-61
2021/11/22 10:01:25;;;;;;;107.60;64.03;;;;;;;;;;5034987;28;20118;-63
2021/11/22 10:03:59;;;;;;;119.78;66.35;;;;;;;;;;5035304;28;20025;-62
2021/11/22 10:06:26;;;;;;;128.15;70.95;;;;;;;;;;5035280;28;20033;-61
2021/11/22 10:08:52;;;;;;;121.93;72.35;;;;;;;;;;5032983;28;20022;-61
2021/11/22 10:11:18;;;;;;;108.05;64.50;;;;;;;;;;5039673;28;20041;-61
2021/11/22 10:13:46;;;;;;;98.45;62.03;;;;;;;;;;5052142;28;20377;-60
2021/11/22 10:16:12;;;;;;;97.93;61.83;;;;;;;;;;5052832;28;20119;-61
2021/11/22 10:18:44;;;;;;;106.13;63.50;;;;;;;;;;5055024;28;20029;-62
2021/11/22 10:21:11;;;;;;;102.88;61.42;;;;;;;;;;5054509;28;20033;-61
2021/11/22 10:23:39;;;;;;;88.72;54.88;;;;;;;;;;5054819;28;20106;-61
2021/11/22 10:26:10;;;;;;;101.05;63.65;;;;;;;;;;5054503;28;20040;-62
2021/11/22 10:28:38;;;;;;;96.35;61.60;;;;;;;;;;5037100;28;20021;-62
2021/11/22 10:31:06;;;;;;;110.80;63.90;;;;;;;;;;5054642;28;20112;-61
2021/11/22 10:33:34;;;;;;;112.15;70.82;;;;;;;;;;5036894;28;20025;-61
2021/11/22 10:36:04;;;;;;;111.95;69.28;;;;;;;;;;5053776;28;20442;-62
2021/11/22 10:38:31;;;;;;;111.18;70.75;;;;;;;;;;5071196;28;20096;-61
2021/11/22 10:41:12;;;;;;;108.15;67.50;;;;;;;;;;5073936;28;20017;-61
2021/11/22 10:43:39;;;;;;;113.93;72.00;;;;;;;;;;5074360;28;20024;-61
2021/11/22 10:46:08;;;;;;;119.15;75.57;;;;;;;;;;5074792;28;20034;-61
2021/11/22 10:48:34;;;;;;;132.57;83.07;;;;;;;;;;5074749;28;20021;-61
2021/11/22 10:51:08;;;;;;;140.73;84.55;;;;;;;;;;5074963;28;20031;-61
2021/11/22 10:53:36;;;;;;;148.35;77.28;;;;;;;;;;5074608;28;20073;-61
2021/11/22 10:56:03;;;;;;;134.75;78.38;;;;;;;;;;5056541;28;20024;-61
2021/11/22 10:58:50;;;;;;;121.32;77.65;;;;;;;;;;5056790;28;20127;-61
2021/11/22 11:01:20;;;;;;;119.57;70.85;;;;;;;;;;5074565;28;20032;-61
2021/11/22 11:04:12;;;;;;;123.30;76.75;;;;;;;;;;5056482;28;20025;-61
2021/11/22 11:06:44;;;;;;;106.28;69.90;;;;;;;;;;5069928;28;20052;-61
2021/11/22 11:09:20;;;;;;;106.80;69.00;;;;;;;;;;5074355;28;20489;-61
2021/11/22 11:11:46;;;;;;;110.05;68.13;;;;;;;;;;5064458;28;20045;-61
2021/11/22 11:14:14;;;;;;;110.43;68.25;;;;;;;;;;5036326;28;20029;-60
2021/11/22 11:16:42;;;;;;;159.82;85.68;;;;;;;;;;5054253;28;20029;-61
2021/11/22 11:19:10;;;;;;;149.57;87.05;;;;;;;;;;5054123;28;20017;-61
2021/11/22 11:21:41;;;;;;;143.35;93.07;;;;;;;;;;5054172;28;20091;-62
2021/11/22 11:24:08;;;;;;;106.40;67.95;;;;;;;;;;5054056;28;20020;-61
2021/11/22 11:26:35;;;;;;;110.03;69.47;;;;;;;;;;5053955;28;20489;-61
2021/11/22 11:29:02;;;;;;;103.35;69.25;;;;;;;;;;5053908;28;20051;-62
2021/11/22 11:31:28;;;;;;;108.22;71.22;;;;;;;;;;5035973;28;20470;-62
2021/11/22 11:33:56;;;;;;;108.75;69.82;;;;;;;;;;5053847;28;20056;-61
2021/11/22 11:36:42;;;;;;;122.40;77.13;;;;;;;;;;5053343;28;20168;-62
2021/11/22 11:39:11;;;;;;;117.80;78.68;;;;;;;;;;5053767;28;20056;-61
2021/11/22 11:41:38;;;;;;;111.85;73.28;;;;;;;;;;5035849;28;20079;-61
2021/11/22 11:44:10;;;;;;;126.90;81.40;;;;;;;;;;5049630;28;20074;-61
2021/11/22 11:46:48;;;;;;;110.82;76.30;;;;;;;;;;5033409;28;20057;-61
2021/11/22 11:49:15;;;;;;;119.25;80.57;;;;;;;;;;5033265;28;20378;-61
2021/11/22 11:51:46;;;;;;;118.18;80.40;;;;;;;;;;5033493;28;20037;-61
2021/11/22 11:54:14;;;;;;;120.28;77.18;;;;;;;;;;5033533;28;20021;-61
2021/11/22 11:56:47;;;;;;;114.25;73.72;;;;;;;;;;5033442;28;20022;-61
2021/11/22 11:59:26;;;;;;;109.72;73.70;;;;;;;;;;5033444;28;20017;-62
2021/11/22 12:02:03;;;;;;;107.55;72.07;;;;;;;;;;5033161;28;20025;-62
2021/11/22 12:04:50;;;;;;;122.93;76.15;;;;;;;;;;5033140;28;20462;-62
2021/11/22 12:07:27;;;;;;;118.78;78.03;;;;;;;;;;5032991;28;20029;-62
2021/11/22 12:10:08;;;;;;;126.18;80.03;;;;;;;;;;5033063;28;20147;-61
2021/11/22 12:12:54;;;;;;;123.28;80.30;;;;;;;;;;5047762;28;20144;-62
2021/11/22 12:15:27;;;;;;;122.43;80.50;;;;;;;;;;5041109;28;20086;-62
2021/11/22 12:17:58;;;;;;;133.73;88.70;;;;;;;;;;5052881;28;20111;-61
2021/11/22 12:20:24;;;;;;;125.47;82.63;;;;;;;;;;5047996;28;20028;-61
2021/11/22 12:23:02;;;;;;;133.57;88.43;;;;;;;;;;5051740;28;20033;-61
2021/11/22 12:25:43;;;;;;;139.73;92.05;;;;;;;;;;5052750;28;20025;-61
2021/11/22 12:28:26;;;;;;;150.07;97.00;;;;;;;;;;5051531;28;20025;-62
2021/11/22 12:30:55;;;;;;;210.73;125.72;;;;;;;;;;5051372;28;20514;-62
2021/11/22 12:33:24;;;;;;;156.77;99.65;;;;;;;;;;5052402;28;20025;-62
2021/11/22 12:35:56;;;;;;;167.50;106.65;;;;;;;;;;5051238;28;20659;-61
2021/11/22 12:38:25;;;;;;;160.82;103.93;;;;;;;;;;5052829;28;20029;-62
2021/11/22 12:40:52;;;;;;;153.02;97.80;;;;;;;;;;5034563;28;20060;-62
2021/11/22 12:43:36;;;;;;;152.77;95.57;;;;;;;;;;5070842;28;20096;-62
2021/11/22 12:46:06;;;;;;;157.85;99.82;;;;;;;;;;5072538;28;20028;-62
2021/11/22 12:48:33;;;;;;;163.20;102.72;;;;;;;;;;5074377;28;20021;-62
2021/11/22 12:51:01;;;;;;;146.93;90.03;;;;;;;;;;5058502;28;20035;-63
2021/11/22 12:53:28;;;;;;;139.15;89.80;;;;;;;;;;5065769;28;20017;-63
2021/11/22 12:55:55;;;;;;;138.10;85.82;;;;;;;;;;5055841;28;20487;-62
2021/11/22 12:58:23;;;;;;;136.15;85.45;;;;;;;;;;5038934;28;20444;-63
2021/11/22 13:00:51;;;;;;;133.02;81.10;;;;;;;;;;5056691;28;20028;-62
2021/11/22 13:03:19;;;;;;;113.80;72.78;;;;;;;;;;5056609;28;20025;-62
2021/11/22 13:05:51;;;;;;;111.70;68.68;;;;;;;;;;5056339;28;20445;-62
2021/11/22 13:08:17;;;;;;;111.20;69.25;;;;;;;;;;5056586;28;20027;-62
2021/11/22 13:10:46;;;;;;;118.57;69.50;;;;;;;;;;5056163;28;20028;-62
2021/11/22 13:13:15;;;;;;;126.95;72.53;;;;;;;;;;5038525;28;20081;-63
2021/11/22 13:15:55;;;;;;;122.85;69.93;;;;;;;;;;5056364;28;20033;-63
2021/11/22 13:18:25;;;;;;;122.57;70.68;;;;;;;;;;5056258;28;20025;-62
2021/11/22 13:20:52;;;;;;;130.48;67.80;;;;;;;;;;5055964;28;20025;-63
2021/11/22 13:23:37;;;;;;;122.10;70.18;;;;;;;;;;5038211;28;20032;-62
2021/11/22 13:26:09;;;;;;;121.40;72.45;;;;;;;;;;5056248;28;20135;-63
2021/11/22 13:28:43;;;;;;;119.95;68.10;;;;;;;;;;5055882;28;20048;-63
2021/11/22 13:31:10;;;;;;;127.57;73.78;;;;;;;;;;5056238;28;20033;-62
2021/11/22 13:33:36;;;;;;;127.05;73.57;;;;;;;;;;5055649;28;20064;-62
2021/11/22 13:36:03;;;;;;;134.63;77.00;;;;;;;;;;5056067;28;20033;-63
2021/11/22 13:38:29;;;;;;;136.63;76.93;;;;;;;;;;5056362;28;20104;-62
2021/11/22 13:40:57;;;;;;;133.15;75.53;;;;;;;;;;5056261;28;20108;-63
2021/11/22 13:43:29;;;;;;;126.45;76.68;;;;;;;;;;5055980;28;20096;-62
2021/11/22 13:46:00;;;;;;;136.13;79.18;;;;;;;;;;5055772;28;20044;-62
2021/11/22 13:48:45;;;;;;;142.48;80.43;;;;;;;;;;5055936;28;20025;-63
2021/11/22 13:51:13;;;;;;;141.48;82.85;;;;;;;;;;5055571;28;20468;-62